createdAt,value
2018-04-29T00:00:29.249Z,9.63
2018-04-29T00:02:57.547Z,9.00
2018-04-29T00:05:25.076Z,9.73
2018-04-29T00:07:52.612Z,10.98
2018-04-29T00:10:20.136Z,9.18
2018-04-29T00:12:47.701Z,10.75
2018-04-29T00:15:15.213Z,12.40
2018-04-29T00:17:42.722Z,8.80
2018-04-29T00:20:10.261Z,10.98
2018-04-29T00:22:38.566Z,9.82
2018-04-29T00:25:06.072Z,11.35
2018-04-29T00:27:33.576Z,10.95
2018-04-29T00:30:01.098Z,11.27
2018-04-29T00:32:29.373Z,8.73
2018-04-29T00:34:57.676Z,11.12
2018-04-29T00:37:25.195Z,9.93
2018-04-29T00:39:52.698Z,9.98
2018-04-29T00:42:20.220Z,9.68
2018-04-29T00:44:47.784Z,8.60
2018-04-29T00:47:15.304Z,8.15
2018-04-29T00:49:42.812Z,7.93
2018-04-29T00:52:11.101Z,8.25
2018-04-29T00:54:39.381Z,14.05
2018-04-29T00:57:07.741Z,10.30
2018-04-29T00:59:35.266Z,10.57
2018-04-29T01:02:02.815Z,11.77
2018-04-29T01:04:30.330Z,12.13
2018-04-29T01:06:57.847Z,8.73
2018-04-29T01:09:25.375Z,11.27
2018-04-29T01:11:52.899Z,9.75
2018-04-29T01:14:20.409Z,8.80
2018-04-29T01:16:47.939Z,10.00
2018-04-29T01:19:15.440Z,8.50
2018-04-29T01:21:43.009Z,9.75
2018-04-29T01:24:10.514Z,14.13
2018-04-29T01:26:38.789Z,10.70
2018-04-29T01:29:06.317Z,9.70
2018-04-29T01:31:33.840Z,11.70
2018-04-29T01:34:01.362Z,10.00
2018-04-29T01:36:29.672Z,9.93
2018-04-29T01:38:57.189Z,10.52
2018-04-29T01:41:24.720Z,12.02
2018-04-29T01:43:52.249Z,8.60
2018-04-29T01:46:19.773Z,10.82
2018-04-29T01:48:47.278Z,9.52
2018-04-29T01:51:14.845Z,10.77
2018-04-29T01:53:42.362Z,14.15
2018-04-29T01:56:10.639Z,10.60
2018-04-29T01:58:38.184Z,9.15
2018-04-29T02:01:06.496Z,9.55
2018-04-29T02:03:34.001Z,10.73
2018-04-29T02:06:01.511Z,11.12
2018-04-29T02:08:29.022Z,10.70
2018-04-29T02:10:56.530Z,19.00
2018-04-29T02:13:24.067Z,13.55
2018-04-29T02:15:52.341Z,10.43
2018-04-29T02:18:19.864Z,11.65
2018-04-29T02:20:47.389Z,10.48
2018-04-29T02:23:14.923Z,10.88
2018-04-29T02:25:43.189Z,9.88
2018-04-29T02:28:10.698Z,12.80
2018-04-29T02:30:38.220Z,10.15
2018-04-29T02:33:06.510Z,9.35
2018-04-29T02:35:34.009Z,9.77
2018-04-29T02:38:01.528Z,13.25
2018-04-29T02:40:29.075Z,11.70
2018-04-29T02:42:57.353Z,9.57
2018-04-29T02:45:25.619Z,14.63
2018-04-29T02:47:54.036Z,12.05
2018-04-29T02:50:21.568Z,11.40
2018-04-29T02:52:49.853Z,12.30
2018-04-29T02:55:18.214Z,12.32
2018-04-29T02:57:46.510Z,11.45
2018-04-29T03:00:14.042Z,16.50
2018-04-29T03:02:41.562Z,11.25
2018-04-29T03:05:09.098Z,12.82
2018-04-29T03:07:36.652Z,11.70
2018-04-29T03:10:04.164Z,14.30
2018-04-29T03:12:31.685Z,14.20
2018-04-29T03:14:59.212Z,13.07
2018-04-29T03:17:27.486Z,13.55
2018-04-29T03:19:55.781Z,13.10
2018-04-29T03:22:24.059Z,12.77
2018-04-29T03:24:52.327Z,13.43
2018-04-29T03:27:20.607Z,14.00
2018-04-29T03:29:48.152Z,11.12
2018-04-29T03:32:15.664Z,13.18
2018-04-29T03:34:43.203Z,12.93
2018-04-29T03:37:10.722Z,14.23
2018-04-29T03:39:38.236Z,13.45
2018-04-29T03:42:05.763Z,11.60
2018-04-29T03:44:34.046Z,15.35
2018-04-29T03:47:01.642Z,12.68
2018-04-29T03:49:29.147Z,12.65
2018-04-29T03:51:57.414Z,12.75
2018-04-29T03:54:25.011Z,12.85
2018-04-29T03:56:52.540Z,11.45
2018-04-29T03:59:31.948Z,12.50
2018-04-29T04:02:11.223Z,15.57
2018-04-29T04:04:39.527Z,14.85
2018-04-29T04:07:07.135Z,13.85
2018-04-29T04:09:34.663Z,14.00
2018-04-29T04:12:02.160Z,13.75
2018-04-29T04:14:29.671Z,13.48
2018-04-29T04:16:57.187Z,11.75
2018-04-29T04:19:24.722Z,16.12
2018-04-29T04:21:52.278Z,13.13
2018-04-29T04:24:20.564Z,13.48
2018-04-29T04:26:48.098Z,12.88
2018-04-29T04:29:15.627Z,13.80
2018-04-29T04:31:43.155Z,11.50
2018-04-29T04:34:11.494Z,12.65
2018-04-29T04:36:39.732Z,11.55
2018-04-29T04:39:08.023Z,14.05
2018-04-29T04:41:35.546Z,12.98
2018-04-29T04:44:03.058Z,14.52
2018-04-29T04:46:30.585Z,14.95
2018-04-29T04:48:58.877Z,13.57
2018-04-29T04:51:26.405Z,13.70
2018-04-29T04:53:53.915Z,12.73
2018-04-29T04:56:21.414Z,12.68
2018-04-29T04:58:48.921Z,13.73
2018-04-29T05:01:16.432Z,11.52
2018-04-29T05:03:43.942Z,16.10
2018-04-29T05:06:11.478Z,15.70
2018-04-29T05:08:39.764Z,15.25
2018-04-29T05:11:08.087Z,12.43
2018-04-29T05:13:35.631Z,11.63
2018-04-29T05:16:03.155Z,16.37
2018-04-29T05:18:31.438Z,16.10
2018-04-29T05:20:59.734Z,14.00
2018-04-29T05:23:27.258Z,15.07
2018-04-29T05:25:54.797Z,15.25
2018-04-29T05:28:22.351Z,12.85
2018-04-29T05:30:49.863Z,13.82
2018-04-29T05:33:17.372Z,13.38
2018-04-29T05:35:44.907Z,12.65
2018-04-29T05:38:12.418Z,14.18
2018-04-29T05:40:39.944Z,13.35
2018-04-29T05:43:07.475Z,13.80
2018-04-29T05:45:35.012Z,14.02
2018-04-29T05:48:02.629Z,13.30
2018-04-29T05:50:30.141Z,13.80
2018-04-29T05:52:57.682Z,13.65
2018-04-29T05:55:25.969Z,13.57
2018-04-29T05:57:54.252Z,11.95
2018-04-29T06:00:21.772Z,12.40
2018-04-29T06:02:50.122Z,12.70
2018-04-29T06:05:17.653Z,15.70
2018-04-29T06:07:45.169Z,12.75
2018-04-29T06:10:12.743Z,12.82
2018-04-29T06:12:40.291Z,12.30
2018-04-29T06:15:07.898Z,16.17
2018-04-29T06:17:35.496Z,13.35
2018-04-29T06:20:03.053Z,11.77
2018-04-29T06:22:30.550Z,11.30
2018-04-29T06:24:58.250Z,12.25
2018-04-29T06:27:25.769Z,11.25
2018-04-29T06:29:54.114Z,9.73
2018-04-29T06:32:21.610Z,9.88
2018-04-29T06:34:49.139Z,11.50
2018-04-29T06:37:16.667Z,10.63
2018-04-29T06:39:44.178Z,8.27
2018-04-29T06:42:11.688Z,10.18
2018-04-29T06:44:39.216Z,9.65
2018-04-29T06:47:07.498Z,11.12
2018-04-29T06:49:35.771Z,10.85
2018-04-29T06:52:04.041Z,7.28
2018-04-29T06:54:32.336Z,14.98
2018-04-29T06:56:59.863Z,9.05
2018-04-29T06:59:27.368Z,12.05
2018-04-29T07:01:54.885Z,8.02
2018-04-29T07:04:22.428Z,12.95
2018-04-29T07:06:50.726Z,7.90
2018-04-29T07:09:18.256Z,7.57
2018-04-29T07:11:45.766Z,9.40
2018-04-29T07:14:14.062Z,9.15
2018-04-29T07:16:41.699Z,10.63
2018-04-29T07:19:09.984Z,11.95
2018-04-29T07:21:37.485Z,8.77
2018-04-29T07:24:05.038Z,6.85
2018-04-29T07:26:32.533Z,6.18
2018-04-29T07:29:00.076Z,8.05
2018-04-29T07:31:27.585Z,6.72
2018-04-29T07:33:55.135Z,7.10
2018-04-29T07:36:23.415Z,6.97
2018-04-29T07:38:50.932Z,7.75
2018-04-29T07:41:18.434Z,8.05
2018-04-29T07:43:45.944Z,10.27
2018-04-29T07:46:13.457Z,7.82
2018-04-29T07:48:40.973Z,8.13
2018-04-29T07:51:08.515Z,6.57
2018-04-29T07:53:36.018Z,9.02
2018-04-29T07:56:04.287Z,9.57
2018-04-29T07:58:31.807Z,6.82
2018-04-29T08:00:59.361Z,7.60
2018-04-29T08:03:26.878Z,6.55
2018-04-29T08:05:55.229Z,12.75
2018-04-29T08:08:22.744Z,9.70
2018-04-29T08:10:50.261Z,7.55
2018-04-29T08:13:17.796Z,7.78
2018-04-29T08:15:46.292Z,5.82
2018-04-29T08:18:13.814Z,4.62
2018-04-29T08:20:41.374Z,13.50
2018-04-29T08:23:08.919Z,5.82
2018-04-29T08:25:36.440Z,8.88
2018-04-29T08:28:03.982Z,6.50
2018-04-29T08:30:31.490Z,5.75
2018-04-29T08:32:59.032Z,6.37
2018-04-29T08:35:27.366Z,4.40
2018-04-29T08:37:54.897Z,6.62
2018-04-29T08:40:22.451Z,8.95
2018-04-29T08:42:49.984Z,6.80
2018-04-29T08:45:17.510Z,5.65
2018-04-29T08:47:45.083Z,6.15
2018-04-29T08:50:12.665Z,4.87
2018-04-29T08:52:40.958Z,6.70
2018-04-29T08:55:09.242Z,6.00
2018-04-29T08:57:36.744Z,4.75
2018-04-29T09:00:04.263Z,6.57
2018-04-29T09:02:32.069Z,5.62
2018-04-29T09:04:59.578Z,8.15
2018-04-29T09:07:27.178Z,5.53
2018-04-29T09:09:54.925Z,5.80
2018-04-29T09:12:22.443Z,5.65
2018-04-29T09:14:49.940Z,8.55
2018-04-29T09:17:17.642Z,4.72
2018-04-29T09:19:45.200Z,5.18
2018-04-29T09:22:12.749Z,7.65
2018-04-29T09:24:40.259Z,5.80
2018-04-29T09:27:07.769Z,5.93
2018-04-29T09:29:35.275Z,5.32
2018-04-29T09:32:03.547Z,7.35
2018-04-29T09:34:31.816Z,6.22
2018-04-29T09:36:59.417Z,9.75
2018-04-29T09:39:26.935Z,9.38
2018-04-29T09:41:55.197Z,5.93
2018-04-29T09:44:22.726Z,5.93
2018-04-29T09:46:50.300Z,9.48
2018-04-29T09:49:17.825Z,7.47
2018-04-29T09:51:45.342Z,6.93
2018-04-29T09:54:12.871Z,8.80
2018-04-29T09:56:40.470Z,11.40
2018-04-29T09:59:07.970Z,5.10
2018-04-29T10:08:19.332Z,6.03
2018-04-29T10:10:46.892Z,6.00
2018-04-29T10:13:14.418Z,5.03
2018-04-29T10:15:41.927Z,6.55
2018-04-29T10:18:09.470Z,10.55
2018-04-29T10:20:37.031Z,6.45
2018-04-29T10:23:04.610Z,5.82
2018-04-29T10:25:32.175Z,6.15
2018-04-29T10:27:59.785Z,8.65
2018-04-29T10:30:27.321Z,5.82
2018-04-29T10:32:55.729Z,9.75
2018-04-29T10:35:23.195Z,5.72
2018-04-29T10:37:50.728Z,7.95
2018-04-29T10:40:18.302Z,5.43
2018-04-29T10:42:45.900Z,4.43
2018-04-29T10:45:13.470Z,3.47
2018-04-29T10:47:40.976Z,3.87
2018-04-29T10:50:08.490Z,4.15
2018-04-29T10:52:36.030Z,3.53
2018-04-29T10:55:03.549Z,6.03
2018-04-29T10:57:31.051Z,4.30
2018-04-29T10:59:58.598Z,3.33
2018-04-29T11:02:26.117Z,5.20
2018-04-29T11:04:53.645Z,5.87
2018-04-29T11:07:21.159Z,7.70
2018-04-29T11:09:48.684Z,6.13
2018-04-29T11:12:17.036Z,5.07
2018-04-29T11:14:44.733Z,5.80
2018-04-29T11:17:12.174Z,4.60
2018-04-29T11:19:39.683Z,3.10
2018-04-29T11:22:07.252Z,3.83
2018-04-29T11:24:34.761Z,3.27
2018-04-29T11:27:02.290Z,4.70
2018-04-29T11:29:29.799Z,2.67
2018-04-29T11:31:57.337Z,4.60
2018-04-29T11:34:25.672Z,2.80
2018-04-29T11:36:53.163Z,4.20
2018-04-29T11:39:20.696Z,5.20
2018-04-29T11:41:48.203Z,4.50
2018-04-29T11:44:15.722Z,5.23
2018-04-29T11:46:43.232Z,4.77
2018-04-29T11:49:10.798Z,8.53
2018-04-29T11:51:38.297Z,4.97
2018-04-29T11:54:05.812Z,6.20
2018-04-29T11:56:33.314Z,8.07
2018-04-29T11:59:00.880Z,5.20
2018-04-29T12:01:28.418Z,4.73
2018-04-29T12:03:55.952Z,6.30
2018-04-29T12:06:23.462Z,5.53
2018-04-29T12:08:51.034Z,6.37
2018-04-29T12:11:18.541Z,18.87
2018-04-29T12:13:46.085Z,7.47
2018-04-29T12:16:13.602Z,3.87
2018-04-29T12:18:41.115Z,6.28
2018-04-29T12:21:08.693Z,5.05
2018-04-29T12:23:36.306Z,6.00
2018-04-29T12:26:04.585Z,5.00
2018-04-29T12:28:32.879Z,6.30
2018-04-29T12:31:01.160Z,5.78
2018-04-29T12:33:28.673Z,4.75
2018-04-29T12:35:56.301Z,7.15
2018-04-29T12:38:23.826Z,5.12
2018-04-29T12:40:51.344Z,5.43
2018-04-29T12:43:18.882Z,3.85
2018-04-29T12:45:46.419Z,6.20
2018-04-29T12:48:13.936Z,5.80
2018-04-29T12:50:41.465Z,3.93
2018-04-29T12:53:08.973Z,5.00
2018-04-29T12:55:37.202Z,4.37
2018-04-29T12:58:04.719Z,5.30
2018-04-29T13:00:32.273Z,3.60
2018-04-29T13:02:59.797Z,4.43
2018-04-29T13:05:27.334Z,4.00
2018-04-29T13:07:55.029Z,5.50
2018-04-29T13:10:23.384Z,5.25
2018-04-29T13:12:50.883Z,5.43
2018-04-29T13:15:18.385Z,3.83
2018-04-29T13:17:45.909Z,5.25
2018-04-29T13:20:14.230Z,5.70
2018-04-29T13:22:41.773Z,7.90
2018-04-29T13:25:09.295Z,4.55
2018-04-29T13:27:37.648Z,6.00
2018-04-29T13:30:05.150Z,5.40
2018-04-29T13:32:33.429Z,5.45
2018-04-29T13:35:01.776Z,5.87
2018-04-29T13:37:30.150Z,8.38
2018-04-29T13:39:57.674Z,7.35
2018-04-29T13:42:25.271Z,7.50
2018-04-29T13:44:53.499Z,5.35
2018-04-29T13:47:21.033Z,7.60
2018-04-29T13:49:48.622Z,4.20
2018-04-29T13:52:16.239Z,5.62
2018-04-29T13:54:43.697Z,5.28
2018-04-29T13:57:11.208Z,5.25
2018-04-29T13:59:38.747Z,4.40
2018-04-29T14:02:06.267Z,5.70
2018-04-29T14:04:33.808Z,3.85
2018-04-29T14:07:01.350Z,5.45
2018-04-29T14:09:28.858Z,4.28
2018-04-29T14:11:56.495Z,6.97
2018-04-29T14:14:24.036Z,13.73
2018-04-29T14:16:51.551Z,5.57
2018-04-29T14:19:19.126Z,6.95
2018-04-29T14:21:47.393Z,4.57
2018-04-29T14:24:15.706Z,4.18
2018-04-29T14:26:43.214Z,6.75
2018-04-29T14:29:10.722Z,6.07
2018-04-29T14:31:38.286Z,5.18
2018-04-29T14:34:05.895Z,6.50
2018-04-29T14:36:33.663Z,5.27
2018-04-29T14:39:01.337Z,6.47
2018-04-29T14:41:28.992Z,5.20
2018-04-29T14:43:57.307Z,4.82
2018-04-29T14:46:24.823Z,8.82
2018-04-29T14:48:52.341Z,6.05
2018-04-29T14:51:19.883Z,6.75
2018-04-29T14:53:48.638Z,9.27
2018-04-29T14:56:16.213Z,5.68
2018-04-29T14:58:43.787Z,5.87
2018-04-29T15:01:11.340Z,5.55
2018-04-29T15:03:38.932Z,6.60
2018-04-29T15:06:06.463Z,5.90
2018-04-29T15:08:34.011Z,5.10
2018-04-29T15:11:01.530Z,8.32
2018-04-29T15:13:29.035Z,9.68
2018-04-29T15:15:58.241Z,4.05
2018-04-29T15:18:38.348Z,9.18
2018-04-29T15:21:05.885Z,8.57
2018-04-29T15:23:33.407Z,6.85
2018-04-29T15:26:00.915Z,5.53
2018-04-29T15:28:28.453Z,7.05
2018-04-29T15:30:55.976Z,8.88
2018-04-29T15:33:25.266Z,6.30
2018-04-29T15:35:53.699Z,4.82
2018-04-29T15:38:21.196Z,7.03
2018-04-29T15:40:48.706Z,6.22
2018-04-29T15:43:16.334Z,4.55
2018-04-29T15:45:44.601Z,6.28
2018-04-29T15:48:12.157Z,6.10
2018-04-29T15:50:39.699Z,5.93
2018-04-29T15:53:07.206Z,6.10
2018-04-29T15:55:34.761Z,5.60
2018-04-29T15:58:03.139Z,5.60
2018-04-29T16:00:30.593Z,6.95
2018-04-29T16:02:58.133Z,5.68
2018-04-29T16:05:25.652Z,5.30
2018-04-29T16:07:53.204Z,6.07
2018-04-29T16:10:20.721Z,6.97
2018-04-29T16:12:48.241Z,5.80
2018-04-29T16:15:15.834Z,6.40
2018-04-29T16:17:43.343Z,8.70
2018-04-29T16:20:10.847Z,6.50
2018-04-29T16:22:38.435Z,6.62
2018-04-29T16:25:06.731Z,5.20
2018-04-29T16:27:34.238Z,5.72
2018-04-29T16:30:01.763Z,6.10
2018-04-29T16:32:29.326Z,6.22
2018-04-29T16:34:56.950Z,4.60
2018-04-29T16:37:25.300Z,6.37
2018-04-29T16:39:52.808Z,4.30
2018-04-29T16:42:20.362Z,5.60
2018-04-29T16:44:48.668Z,6.62
2018-04-29T16:47:16.185Z,5.30
2018-04-29T16:49:43.854Z,7.40
2018-04-29T16:52:11.381Z,4.78
2018-04-29T16:54:39.033Z,7.60
2018-04-29T16:57:06.623Z,7.45
2018-04-29T16:59:34.153Z,5.97
2018-04-29T17:02:01.675Z,8.90
2018-04-29T17:04:29.201Z,5.75
2018-04-29T17:06:56.724Z,5.97
2018-04-29T17:09:24.389Z,5.05
2018-04-29T17:11:51.845Z,7.33
2018-04-29T17:14:19.360Z,7.47
2018-04-29T17:16:47.711Z,5.82
2018-04-29T17:19:15.283Z,6.85
2018-04-29T17:21:43.573Z,8.65
2018-04-29T17:24:11.906Z,8.43
2018-04-29T17:26:39.537Z,7.80
2018-04-29T17:29:07.118Z,5.93
2018-04-29T17:31:34.598Z,6.60
2018-04-29T17:34:02.150Z,7.40
2018-04-29T17:36:29.792Z,7.25
2018-04-29T17:38:57.372Z,6.33
2018-04-29T17:41:24.911Z,6.35
2018-04-29T17:43:52.566Z,6.43
2018-04-29T17:46:20.074Z,9.23
2018-04-29T17:48:47.686Z,8.05
2018-04-29T17:51:15.256Z,9.48
2018-04-29T17:53:43.186Z,8.38
2018-04-29T17:56:11.508Z,10.07
2018-04-29T17:58:39.042Z,9.73
2018-04-29T18:01:06.557Z,7.40
2018-04-29T18:03:34.076Z,7.05
2018-04-29T18:06:01.591Z,6.23
2018-04-29T18:08:29.119Z,7.90
2018-04-29T18:10:56.664Z,6.10
2018-04-29T18:13:24.187Z,5.40
2018-04-29T18:15:52.522Z,6.03
2018-04-29T18:18:20.055Z,5.50
2018-04-29T18:20:47.584Z,9.25
2018-04-29T18:23:15.113Z,6.90
2018-04-29T18:25:42.658Z,5.80
2018-04-29T18:28:10.258Z,7.82
2018-04-29T18:30:38.619Z,5.85
2018-04-29T18:33:06.171Z,6.62
2018-04-29T18:35:33.780Z,4.90
2018-04-29T18:38:01.300Z,5.72
2018-04-29T18:40:28.856Z,7.33
2018-04-29T18:42:56.435Z,7.68
2018-04-29T18:45:24.756Z,5.53
2018-04-29T18:47:52.301Z,8.70
2018-04-29T18:50:19.807Z,8.57
2018-04-29T18:52:47.342Z,12.75
2018-04-29T18:55:14.872Z,6.33
2018-04-29T18:57:42.412Z,7.75
2018-04-29T19:00:10.724Z,7.40
2018-04-29T19:02:38.281Z,7.50
2018-04-29T19:05:05.812Z,6.30
2018-04-29T19:07:34.156Z,6.62
2018-04-29T19:10:01.705Z,6.43
2018-04-29T19:12:29.224Z,9.13
2018-04-29T19:14:56.751Z,11.60
2018-04-29T19:17:24.290Z,5.75
2018-04-29T19:19:51.805Z,5.90
2018-04-29T19:22:20.696Z,7.20
2018-04-29T19:24:50.324Z,6.55
2018-04-29T19:27:17.924Z,6.18
2018-04-29T19:29:45.491Z,6.72
2018-04-29T19:32:14.513Z,6.30
2018-04-29T19:34:42.035Z,6.40
2018-04-29T19:37:09.613Z,5.87
2018-04-29T19:39:37.138Z,5.55
2018-04-29T19:42:04.656Z,8.63
2018-04-29T19:44:32.183Z,6.25
2018-04-29T19:46:59.709Z,7.05
2018-04-29T19:49:27.236Z,9.45
2018-04-29T19:51:54.844Z,5.70
2018-04-29T19:54:22.439Z,9.55
2018-04-29T19:56:50.094Z,5.78
2018-04-29T19:59:17.600Z,6.53
2018-04-29T20:01:45.117Z,10.02
2018-04-29T20:04:13.419Z,8.70
2018-04-29T20:06:40.958Z,6.22
2018-04-29T20:09:08.557Z,5.03
2018-04-29T20:11:36.213Z,11.23
2018-04-29T20:14:04.461Z,6.65
2018-04-29T20:16:32.757Z,5.40
2018-04-29T20:19:00.278Z,6.80
2018-04-29T20:21:27.845Z,5.28
2018-04-29T20:23:55.558Z,5.87
2018-04-29T20:26:22.991Z,8.02
2018-04-29T20:28:51.272Z,6.53
2018-04-29T20:31:18.791Z,5.82
2018-04-29T20:33:46.307Z,5.40
2018-04-29T20:36:14.803Z,10.90
2018-04-29T20:38:42.326Z,6.43
2018-04-29T20:41:10.600Z,11.02
2018-04-29T20:43:38.873Z,7.85
2018-04-29T20:46:07.166Z,7.18
2018-04-29T20:48:34.681Z,7.37
2018-04-29T20:51:02.203Z,8.13
2018-04-29T20:53:29.729Z,8.15
2018-04-29T20:55:58.026Z,5.20
2018-04-29T20:58:26.382Z,8.05
2018-04-29T21:00:53.903Z,6.65
2018-04-29T21:03:21.416Z,11.00
2018-04-29T21:05:48.945Z,6.95
2018-04-29T21:08:16.494Z,6.43
2018-04-29T21:10:44.013Z,7.30
2018-04-29T21:13:11.518Z,6.20
2018-04-29T21:15:39.028Z,7.55
2018-04-29T21:18:06.544Z,7.05
2018-04-29T21:20:34.045Z,7.70
2018-04-29T21:23:01.586Z,10.75
2018-04-29T21:25:29.100Z,8.90
2018-04-29T21:27:56.633Z,9.52
2018-04-29T21:30:24.153Z,7.62
2018-04-29T21:32:52.464Z,11.73
2018-04-29T21:35:19.978Z,7.37
2018-04-29T21:37:47.534Z,11.73
2018-04-29T21:40:15.091Z,9.82
2018-04-29T21:42:42.604Z,9.27
2018-04-29T21:45:10.125Z,7.82
2018-04-29T21:47:38.514Z,7.12
2018-04-29T21:50:06.996Z,11.38
2018-04-29T21:52:35.304Z,10.40
2018-04-29T21:55:02.796Z,7.95
2018-04-29T21:57:30.324Z,11.10
2018-04-29T21:59:57.852Z,7.90
2018-04-29T22:02:26.130Z,7.18
2018-04-29T22:04:54.431Z,7.15
2018-04-29T22:07:21.946Z,7.00
2018-04-29T22:09:49.465Z,10.70
2018-04-29T22:12:16.980Z,7.05
2018-04-29T22:14:45.261Z,9.43
2018-04-29T22:17:13.568Z,6.97
2018-04-29T22:19:41.092Z,12.82
2018-04-29T22:22:08.650Z,7.53
2018-04-29T22:24:36.943Z,9.43
2018-04-29T22:27:05.242Z,9.57
2018-04-29T22:29:32.866Z,8.73
2018-04-29T22:32:00.397Z,8.60
2018-04-29T22:34:27.929Z,8.13
2018-04-29T22:36:55.530Z,8.75
2018-04-29T22:39:23.062Z,7.90
2018-04-29T22:41:50.568Z,9.23
2018-04-29T22:44:18.882Z,8.43
2018-04-29T22:46:46.431Z,13.35
2018-04-29T22:49:13.953Z,9.35
2018-04-29T22:51:41.470Z,8.30
2018-04-29T22:54:09.008Z,8.80
2018-04-29T22:56:36.569Z,11.00
2018-04-29T22:59:04.096Z,10.32
2018-04-29T23:01:31.612Z,9.27
2018-04-29T23:03:59.168Z,9.23
2018-04-29T23:06:26.667Z,9.68
2018-04-29T23:08:54.190Z,8.32
2018-04-29T23:11:21.755Z,8.80
2018-04-29T23:13:49.286Z,9.68
2018-04-29T23:16:16.794Z,8.63
2018-04-29T23:18:44.313Z,8.07
2018-04-29T23:21:11.841Z,9.15
2018-04-29T23:23:40.214Z,8.50
2018-04-29T23:26:07.722Z,9.50
2018-04-29T23:28:35.236Z,8.88
2018-04-29T23:31:02.738Z,8.95
2018-04-29T23:33:30.294Z,10.27
2018-04-29T23:35:57.820Z,9.70
2018-04-29T23:38:25.336Z,9.38
2018-04-29T23:40:52.841Z,9.90
2018-04-29T23:43:21.134Z,10.50
2018-04-29T23:45:48.637Z,10.30
2018-04-29T23:48:16.169Z,9.82
2018-04-29T23:50:43.686Z,9.63
2018-04-29T23:53:11.985Z,10.30
2018-04-29T23:55:40.267Z,9.55
2018-04-29T23:58:07.789Z,9.88
